Time;durP1;ratioP1;P1;durP2;ratioP2;P2;SDS_P1;SDS_P2;PMS_P1;PMS_P2;Temp;Humidity;BMP_temperature;BMP_pressure;BME280_temperature;BME280_humidity;BME280_pressure;Samples;Min_cycle;Max_cycle;Signal;HPM_P1;HPM_P2
2022/07/26 00:01:16;;;;;;;7.35;5.57;;;22.30;99.90;;;;;;5049431;28;20604;-85
2022/07/26 00:03:41;;;;;;;6.38;5.43;;;22.20;99.90;;;;;;5050863;28;20021;-81
2022/07/26 00:06:07;;;;;;;6.20;5.53;;;22.20;99.90;;;;;;5048917;28;20129;-82
2022/07/26 00:08:32;;;;;;;8.57;5.43;;;22.30;99.90;;;;;;5049224;28;20086;-81
2022/07/26 00:10:58;;;;;;;6.90;5.75;;;22.20;99.90;;;;;;5050546;28;20071;-84
2022/07/26 00:13:23;;;;;;;8.43;5.50;;;22.30;99.90;;;;;;5050718;28;20066;-84
2022/07/26 00:15:50;;;;;;;5.88;4.55;;;22.30;99.90;;;;;;5048908;28;20041;-82
2022/07/26 00:18:16;;;;;;;9.18;5.18;;;22.30;99.90;;;;;;5050389;28;20055;-82
2022/07/26 00:20:42;;;;;;;9.85;4.97;;;22.30;99.90;;;;;;5049180;28;20358;-81
2022/07/26 00:23:08;;;;;;;6.53;5.07;;;22.30;99.90;;;;;;5048770;28;20087;-82
2022/07/26 00:25:33;;;;;;;7.78;4.63;;;22.30;99.90;;;;;;5049926;28;20368;-85
2022/07/26 00:27:59;;;;;;;6.35;4.40;;;22.20;99.90;;;;;;5050822;28;20031;-85
2022/07/26 00:30:25;;;;;;;7.43;4.28;;;22.30;99.90;;;;;;5049858;28;20107;-86
2022/07/26 00:32:51;;;;;;;5.53;4.10;;;22.30;99.90;;;;;;5050564;28;20036;-81
2022/07/26 00:35:17;;;;;;;6.00;4.07;;;22.30;99.90;;;;;;5050235;28;20028;-81
2022/07/26 00:37:43;;;;;;;6.55;4.18;;;22.30;99.90;;;;;;5048864;28;20362;-80
2022/07/26 00:40:09;;;;;;;4.75;4.10;;;22.30;99.90;;;;;;5048867;28;20029;-81
2022/07/26 00:42:35;;;;;;;6.18;4.15;;;22.40;99.90;;;;;;5048490;28;20029;-85
2022/07/26 00:45:02;;;;;;;6.85;3.75;;;22.40;99.90;;;;;;5048850;28;20536;-83
2022/07/26 00:47:27;;;;;;;5.35;3.70;;;22.40;99.90;;;;;;5049014;28;20049;-83
2022/07/26 00:49:53;;;;;;;6.95;4.25;;;22.50;99.90;;;;;;5049029;28;20098;-81
2022/07/26 00:52:18;;;;;;;6.13;4.05;;;22.50;99.90;;;;;;5049682;28;20478;-81
2022/07/26 00:54:45;;;;;;;6.10;4.35;;;22.50;99.90;;;;;;5045446;28;20119;-82
2022/07/26 00:57:12;;;;;;;7.82;4.47;;;22.60;99.90;;;;;;5048118;28;20017;-80
2022/07/26 00:59:38;;;;;;;5.78;4.85;;;22.60;99.90;;;;;;5050521;28;20017;-81
2022/07/26 01:02:05;;;;;;;6.00;4.25;;;22.60;99.90;;;;;;5048017;28;20501;-85
2022/07/26 01:04:31;;;;;;;5.65;4.22;;;22.60;99.90;;;;;;5050024;28;20028;-85
2022/07/26 01:06:56;;;;;;;10.02;4.07;;;22.60;99.90;;;;;;5047556;28;20366;-80
2022/07/26 01:09:22;;;;;;;6.90;4.50;;;22.60;99.90;;;;;;5049899;28;20017;-80
2022/07/26 01:11:48;;;;;;;6.30;4.18;;;22.60;99.90;;;;;;5049797;28;20035;-79
2022/07/26 01:14:14;;;;;;;5.57;3.90;;;22.70;99.90;;;;;;5048852;28;20125;-85
2022/07/26 01:16:39;;;;;;;6.70;4.43;;;22.70;99.90;;;;;;5047731;28;20116;-82
2022/07/26 01:19:05;;;;;;;7.63;4.18;;;22.70;99.90;;;;;;5048379;28;20025;-81
2022/07/26 01:21:32;;;;;;;6.57;4.32;;;22.70;99.90;;;;;;5048658;28;20021;-81
2022/07/26 01:23:57;;;;;;;7.18;4.20;;;22.70;99.90;;;;;;5049693;28;20840;-80
2022/07/26 01:26:23;;;;;;;4.72;3.78;;;22.70;99.90;;;;;;5049488;28;20076;-81
2022/07/26 01:28:49;;;;;;;5.05;3.95;;;22.70;99.90;;;;;;5049336;28;20428;-81
2022/07/26 01:31:15;;;;;;;4.47;3.55;;;22.70;99.90;;;;;;5052015;28;20449;-80
2022/07/26 01:33:41;;;;;;;6.07;4.65;;;22.70;99.80;;;;;;5052230;28;20040;-82
2022/07/26 01:36:08;;;;;;;4.55;3.80;;;22.80;99.90;;;;;;5051141;28;20115;-80
2022/07/26 01:38:34;;;;;;;5.97;4.38;;;22.70;99.90;;;;;;5053270;28;20535;-80
2022/07/26 01:40:59;;;;;;;6.72;3.35;;;22.70;99.70;;;;;;5053368;28;20033;-81
2022/07/26 01:43:25;;;;;;;5.43;3.55;;;22.80;99.80;;;;;;5052089;28;20033;-83
2022/07/26 01:45:51;;;;;;;4.28;3.03;;;22.70;99.70;;;;;;5051860;28;20028;-80
2022/07/26 01:48:16;;;;;;;4.57;3.92;;;22.70;99.80;;;;;;5056860;28;20048;-82
2022/07/26 01:50:42;;;;;;;5.53;3.90;;;22.70;99.70;;;;;;5054450;28;20128;-85
2022/07/26 01:53:07;;;;;;;9.68;3.42;;;22.80;99.70;;;;;;5053026;28;20037;-83
2022/07/26 01:55:33;;;;;;;5.55;3.47;;;22.80;99.60;;;;;;5052671;28;20107;-82
2022/07/26 01:57:59;;;;;;;4.85;3.53;;;22.80;99.60;;;;;;5052108;28;20033;-80
2022/07/26 02:00:24;;;;;;;3.97;3.58;;;22.80;99.70;;;;;;5052361;28;20032;-83
2022/07/26 02:02:50;;;;;;;5.25;4.20;;;22.90;99.40;;;;;;5051220;28;20089;-80
2022/07/26 02:05:15;;;;;;;5.45;4.15;;;22.90;99.50;;;;;;5053265;28;20036;-86
2022/07/26 02:07:42;;;;;;;5.93;4.45;;;22.90;99.40;;;;;;5052876;28;20104;-83
2022/07/26 02:10:09;;;;;;;5.32;4.22;;;22.90;99.40;;;;;;5052017;28;20029;-84
2022/07/26 02:12:35;;;;;;;8.68;4.43;;;22.90;99.40;;;;;;5053201;28;20099;-81
2022/07/26 02:15:02;;;;;;;4.88;3.53;;;22.90;99.40;;;;;;5051537;28;20449;-82
2022/07/26 02:17:27;;;;;;;4.15;3.70;;;22.90;99.30;;;;;;5052823;28;20135;-81
2022/07/26 02:19:53;;;;;;;7.38;3.58;;;22.80;99.30;;;;;;5052797;28;20492;-81
2022/07/26 02:22:19;;;;;;;6.53;4.45;;;22.80;99.30;;;;;;5052575;28;20037;-82
2022/07/26 02:24:48;;;;;;;4.93;4.10;;;22.80;99.40;;;;;;5051351;28;20104;-80
2022/07/26 02:27:13;;;;;;;5.03;4.10;;;22.70;99.40;;;;;;5051722;28;20370;-82
2022/07/26 02:29:39;;;;;;;10.27;4.20;;;22.70;99.50;;;;;;5051277;28;20032;-84
2022/07/26 02:32:05;;;;;;;6.78;4.82;;;22.70;99.50;;;;;;5050526;28;20029;-80
2022/07/26 02:34:30;;;;;;;6.15;4.28;;;22.70;99.70;;;;;;5051574;28;20111;-80
2022/07/26 02:36:56;;;;;;;4.45;4.03;;;22.60;99.70;;;;;;5052883;28;20087;-81
2022/07/26 02:39:26;;;;;;;5.95;4.00;;;22.60;99.70;;;;;;5052457;28;20021;-80
2022/07/26 02:41:53;;;;;;;6.57;4.28;;;22.60;99.90;;;;;;5050958;28;20059;-85
2022/07/26 02:44:18;;;;;;;6.03;4.20;;;22.50;99.90;;;;;;5053192;28;20066;-78
2022/07/26 02:46:44;;;;;;;6.90;4.85;;;22.50;99.90;;;;;;5052019;28;20370;-80
2022/07/26 02:49:09;;;;;;;6.00;4.28;;;22.40;99.90;;;;;;5052927;28;20033;-82
2022/07/26 02:51:34;;;;;;;4.82;4.15;;;22.40;99.80;;;;;;5051409;28;20043;-80
2022/07/26 02:54:00;;;;;;;6.00;4.25;;;22.40;99.80;;;;;;5052311;28;20029;-81
2022/07/26 02:56:26;;;;;;;8.40;3.95;;;22.30;99.90;;;;;;5050495;28;20460;-79
2022/07/26 02:58:51;;;;;;;7.07;4.47;;;22.20;99.90;;;;;;5051141;28;20067;-80
2022/07/26 03:01:17;;;;;;;9.88;4.78;;;22.20;99.90;;;;;;5051691;28;20055;-86
2022/07/26 03:03:42;;;;;;;7.07;4.18;;;22.20;99.90;;;;;;5050781;28;20033;-80
2022/07/26 03:06:08;;;;;;;7.63;4.07;;;22.10;99.90;;;;;;5051084;28;20369;-80
2022/07/26 03:08:33;;;;;;;4.75;3.17;;;22.10;99.70;;;;;;5051648;28;20068;-80
2022/07/26 03:10:59;;;;;;;4.68;3.45;;;22.10;99.30;;;;;;5051083;28;20423;-81
2022/07/26 03:13:25;;;;;;;3.75;2.80;;;22.00;99.00;;;;;;5050429;28;20025;-83
2022/07/26 03:15:50;;;;;;;6.63;3.58;;;22.00;98.80;;;;;;5049674;28;20377;-88
2022/07/26 03:18:16;;;;;;;3.83;2.83;;;21.90;98.60;;;;;;5050639;28;20020;-87
2022/07/26 03:20:41;;;;;;;6.78;2.45;;;21.90;98.60;;;;;;5051403;28;20079;-80
2022/07/26 03:23:07;;;;;;;4.47;3.10;;;21.80;98.60;;;;;;5050372;28;20346;-81
2022/07/26 03:25:32;;;;;;;8.70;2.50;;;21.80;98.60;;;;;;5049234;28;20086;-82
2022/07/26 03:27:58;;;;;;;3.45;2.60;;;21.80;98.00;;;;;;5050027;28;20036;-80
2022/07/26 03:30:24;;;;;;;7.28;2.65;;;21.70;98.10;;;;;;5051961;28;20021;-80
2022/07/26 03:32:49;;;;;;;7.53;2.88;;;21.60;97.90;;;;;;5050686;28;20052;-80
2022/07/26 03:35:15;;;;;;;10.98;2.80;;;21.50;97.90;;;;;;5051123;28;20049;-80
2022/07/26 03:37:41;;;;;;;4.40;2.50;;;21.50;97.90;;;;;;5049974;28;20021;-86
2022/07/26 03:40:07;;;;;;;5.00;2.35;;;21.50;98.00;;;;;;5049797;28;20079;-80
2022/07/26 03:42:33;;;;;;;3.78;2.08;;;21.40;97.90;;;;;;5049613;28;20029;-85
2022/07/26 03:44:59;;;;;;;4.07;2.20;;;21.40;98.10;;;;;;5049627;28;20039;-83
2022/07/26 03:47:24;;;;;;;5.35;2.58;;;21.30;98.00;;;;;;5048841;28;20017;-80
2022/07/26 03:49:50;;;;;;;3.67;2.28;;;21.30;98.00;;;;;;5049553;28;20725;-81
2022/07/26 03:52:15;;;;;;;5.28;2.10;;;21.30;98.00;;;;;;5048642;28;20390;-82
2022/07/26 03:54:41;;;;;;;8.10;2.47;;;21.30;98.00;;;;;;5049553;28;20013;-81
2022/07/26 03:57:06;;;;;;;3.63;2.28;;;21.30;97.80;;;;;;5050193;28;20041;-80
2022/07/26 03:59:32;;;;;;;7.55;1.90;;;21.20;97.80;;;;;;5050553;28;20017;-80
2022/07/26 04:01:57;;;;;;;4.43;2.03;;;21.20;97.60;;;;;;5050247;28;20099;-83
2022/07/26 04:04:23;;;;;;;3.15;2.15;;;21.20;97.70;;;;;;5049381;28;20358;-80
2022/07/26 04:06:48;;;;;;;6.85;2.10;;;21.10;97.70;;;;;;5049903;28;20021;-79
2022/07/26 04:09:14;;;;;;;6.30;1.80;;;21.10;97.40;;;;;;5049373;28;20025;-79
2022/07/26 04:11:41;;;;;;;4.30;2.17;;;21.00;97.40;;;;;;5050294;28;20470;-79
2022/07/26 04:14:08;;;;;;;8.93;2.40;;;21.00;97.40;;;;;;5050646;28;20373;-79
2022/07/26 04:16:34;;;;;;;4.63;2.10;;;21.00;97.50;;;;;;5048541;28;20025;-83
2022/07/26 04:19:00;;;;;;;3.55;1.67;;;21.10;97.60;;;;;;5049349;28;20366;-80
2022/07/26 04:21:25;;;;;;;5.55;1.98;;;21.10;97.60;;;;;;5050190;28;20043;-80
2022/07/26 04:23:51;;;;;;;10.75;1.60;;;21.10;97.20;;;;;;5049194;28;20024;-81
2022/07/26 04:26:18;;;;;;;9.27;2.10;;;21.10;97.00;;;;;;5049868;28;20493;-79
2022/07/26 04:28:43;;;;;;;4.35;1.60;;;21.10;96.90;;;;;;5050136;28;20052;-84
2022/07/26 04:31:09;;;;;;;6.03;1.83;;;21.10;96.80;;;;;;5048751;28;20060;-81
2022/07/26 04:33:34;;;;;;;5.72;2.20;;;21.10;96.80;;;;;;5049034;28;20035;-79
2022/07/26 04:36:01;;;;;;;6.18;2.38;;;21.10;96.70;;;;;;5049498;28;20354;-81
2022/07/26 04:38:26;;;;;;;8.48;1.88;;;21.10;96.50;;;;;;5045905;28;20024;-78
2022/07/26 04:40:52;;;;;;;9.50;2.22;;;21.20;96.50;;;;;;5029004;28;20022;-83
2022/07/26 04:43:18;;;;;;;9.55;1.98;;;21.10;96.50;;;;;;5029006;28;20414;-79
2022/07/26 04:45:47;;;;;;;6.72;1.73;;;21.10;96.40;;;;;;5030222;28;20113;-84
2022/07/26 04:48:13;;;;;;;4.15;1.63;;;21.20;96.40;;;;;;5030809;28;20493;-81
2022/07/26 04:50:41;;;;;;;4.22;1.48;;;21.20;96.20;;;;;;5033264;28;20086;-79
2022/07/26 04:53:07;;;;;;;4.43;1.80;;;21.10;96.00;;;;;;5050846;28;20079;-79
2022/07/26 04:55:34;;;;;;;4.68;2.03;;;21.10;96.20;;;;;;5050907;28;20104;-79
2022/07/26 04:57:59;;;;;;;5.35;1.75;;;21.20;96.20;;;;;;5049240;28;20064;-83
2022/07/26 05:00:25;;;;;;;6.70;2.00;;;21.20;96.10;;;;;;5050524;28;20082;-82
2022/07/26 05:02:53;;;;;;;7.63;1.40;;;21.20;96.20;;;;;;5048609;28;20461;-82
2022/07/26 05:05:19;;;;;;;3.78;1.60;;;21.30;96.00;;;;;;5051869;28;20044;-81
2022/07/26 05:07:48;;;;;;;2.55;1.63;;;21.30;96.00;;;;;;5052577;28;20017;-79
2022/07/26 05:10:15;;;;;;;2.03;1.40;;;21.30;95.90;;;;;;5054167;28;20071;-81
2022/07/26 05:12:41;;;;;;;6.75;2.17;;;21.30;95.70;;;;;;5052244;28;20021;-79
2022/07/26 05:15:07;;;;;;;6.80;1.77;;;21.30;95.70;;;;;;5052658;28;20364;-79
2022/07/26 05:17:33;;;;;;;3.53;1.70;;;21.20;95.50;;;;;;5053461;28;20063;-82
2022/07/26 05:19:59;;;;;;;3.28;1.77;;;21.10;95.50;;;;;;5053977;28;20048;-79
2022/07/26 05:22:25;;;;;;;3.75;1.65;;;21.10;95.70;;;;;;5053572;28;20449;-79
2022/07/26 05:24:50;;;;;;;2.28;1.80;;;21.20;95.70;;;;;;5053463;28;20089;-81
2022/07/26 05:27:16;;;;;;;6.25;1.55;;;21.20;95.70;;;;;;5051972;28;20021;-82
2022/07/26 05:29:41;;;;;;;3.47;1.35;;;21.30;95.60;;;;;;5052583;28;20055;-80
2022/07/26 05:32:06;;;;;;;1.98;1.33;;;21.30;95.30;;;;;;5053172;28;20037;-79
2022/07/26 05:34:32;;;;;;;6.28;1.55;;;21.40;95.40;;;;;;5053568;28;20033;-80
2022/07/26 05:36:57;;;;;;;4.68;1.23;;;21.50;95.60;;;;;;5051333;28;20028;-79
2022/07/26 05:39:23;;;;;;;5.20;1.60;;;21.60;95.10;;;;;;5052306;28;20580;-79
2022/07/26 05:41:48;;;;;;;3.13;1.40;;;21.70;94.50;;;;;;5051566;28;20033;-79
2022/07/26 05:44:14;;;;;;;9.50;1.58;;;21.60;94.50;;;;;;5053649;28;20390;-81
2022/07/26 05:46:39;;;;;;;6.95;1.27;;;21.70;94.30;;;;;;5051724;28;20024;-79
2022/07/26 05:49:06;;;;;;;4.03;1.38;;;21.70;94.40;;;;;;5052192;28;20037;-83
2022/07/26 05:51:32;;;;;;;1.73;1.00;;;21.80;94.60;;;;;;5053083;28;20025;-80
2022/07/26 05:53:59;;;;;;;5.25;1.42;;;21.90;94.10;;;;;;5053204;28;20354;-80
2022/07/26 05:56:24;;;;;;;4.28;1.05;;;21.90;94.10;;;;;;5051158;28;20025;-81
2022/07/26 05:58:50;;;;;;;6.72;1.63;;;22.00;94.10;;;;;;5053169;28;20025;-80
2022/07/26 06:01:15;;;;;;;7.22;1.23;;;22.00;93.90;;;;;;5052797;28;20035;-86
2022/07/26 06:03:41;;;;;;;4.32;1.50;;;22.10;93.70;;;;;;5051534;28;20100;-79
2022/07/26 06:06:06;;;;;;;2.65;1.10;;;22.10;93.40;;;;;;5051178;28;20028;-80
2022/07/26 06:08:32;;;;;;;3.60;0.90;;;22.20;92.90;;;;;;5053023;28;20025;-80
2022/07/26 06:10:58;;;;;;;7.63;1.05;;;22.20;93.20;;;;;;5052386;28;20055;-80
2022/07/26 06:13:23;;;;;;;8.02;0.80;;;22.30;92.50;;;;;;5051680;28;20424;-83
2022/07/26 06:15:50;;;;;;;4.13;1.13;;;22.20;92.40;;;;;;5051917;28;20029;-86
2022/07/26 06:18:15;;;;;;;5.32;1.10;;;22.20;92.70;;;;;;5053189;28;20025;-84
2022/07/26 06:20:42;;;;;;;5.05;0.95;;;22.20;92.60;;;;;;5051597;28;20090;-79
2022/07/26 06:23:08;;;;;;;4.38;1.35;;;22.20;92.30;;;;;;5052569;28;20033;-80
2022/07/26 06:25:34;;;;;;;1.58;1.00;;;22.20;92.50;;;;;;5051666;28;20107;-82
2022/07/26 06:28:08;;;;;;;5.05;1.67;;;22.10;92.90;;;;;;5051157;28;20115;-83
2022/07/26 06:30:35;;;;;;;3.10;1.35;;;22.10;92.80;;;;;;5051339;28;20170;-79
2022/07/26 06:33:00;;;;;;;2.90;0.95;;;22.10;92.60;;;;;;5050755;28;20029;-81
2022/07/26 06:35:29;;;;;;;3.35;1.00;;;22.10;92.80;;;;;;5052084;28;20025;-80
2022/07/26 06:37:55;;;;;;;4.93;1.00;;;22.20;92.90;;;;;;5052219;28;20036;-82
2022/07/26 06:40:21;;;;;;;5.05;1.17;;;22.20;92.80;;;;;;5051075;28;20465;-82
2022/07/26 06:42:46;;;;;;;4.47;1.25;;;22.30;92.50;;;;;;5050365;28;20028;-80
2022/07/26 06:45:12;;;;;;;2.08;1.00;;;22.30;92.40;;;;;;5052306;28;20033;-83
2022/07/26 06:47:37;;;;;;;3.05;1.10;;;22.30;92.50;;;;;;5047624;28;20489;-82
2022/07/26 06:50:03;;;;;;;4.28;1.27;;;22.40;92.50;;;;;;5050775;28;20426;-81
2022/07/26 06:52:31;;;;;;;1.58;0.80;;;22.40;92.30;;;;;;5052113;28;20103;-81
2022/07/26 06:54:57;;;;;;;3.20;1.10;;;22.40;92.30;;;;;;5051874;28;20021;-82
2022/07/26 06:57:23;;;;;;;3.13;1.00;;;22.40;92.00;;;;;;5050320;28;20032;-83
2022/07/26 06:59:49;;;;;;;4.45;0.80;;;22.50;92.10;;;;;;5052542;28;20408;-84
2022/07/26 07:02:14;;;;;;;9.00;1.40;;;22.50;92.10;;;;;;5050640;28;20033;-81
2022/07/26 07:04:39;;;;;;;4.75;1.00;;;22.50;91.90;;;;;;5050636;28;20047;-83
2022/07/26 07:07:06;;;;;;;3.78;1.10;;;22.50;92.20;;;;;;5051198;28;20037;-81
2022/07/26 07:09:32;;;;;;;2.55;1.10;;;22.50;91.70;;;;;;5050426;28;20055;-81
2022/07/26 07:11:57;;;;;;;6.80;1.00;;;22.60;91.60;;;;;;5050548;28;20028;-84
2022/07/26 07:14:23;;;;;;;3.85;1.30;;;22.50;91.60;;;;;;5050804;28;20025;-82
2022/07/26 07:16:48;;;;;;;4.10;1.00;;;22.40;91.80;;;;;;5051112;28;20462;-80
2022/07/26 07:19:14;;;;;;;7.00;1.10;;;22.40;91.80;;;;;;5050743;28;20021;-82
2022/07/26 07:21:39;;;;;;;4.85;1.63;;;22.40;91.90;;;;;;5050349;28;20361;-83
2022/07/26 07:24:05;;;;;;;4.28;0.98;;;22.50;92.10;;;;;;5050142;28;20029;-78
2022/07/26 07:26:31;;;;;;;5.20;1.30;;;22.60;91.40;;;;;;5048772;28;20374;-81
2022/07/26 07:28:57;;;;;;;4.28;1.25;;;22.70;91.70;;;;;;5050002;28;20028;-79
2022/07/26 07:31:24;;;;;;;2.35;1.10;;;22.80;91.10;;;;;;5051194;28;20032;-81
2022/07/26 07:33:49;;;;;;;1.25;0.65;;;22.80;91.10;;;;;;5050032;28;20505;-79
2022/07/26 07:36:15;;;;;;;2.70;0.85;;;22.90;90.70;;;;;;5051140;28;20028;-78
2022/07/26 07:38:40;;;;;;;3.65;0.68;;;23.00;90.80;;;;;;5051030;28;20075;-81
2022/07/26 07:41:05;;;;;;;6.50;0.82;;;23.10;90.30;;;;;;5050994;28;20065;-82
2022/07/26 07:43:31;;;;;;;2.17;0.68;;;23.10;90.40;;;;;;5051210;28;20044;-81
2022/07/26 07:45:56;;;;;;;3.45;1.23;;;23.20;90.20;;;;;;5049307;28;20543;-79
2022/07/26 07:48:22;;;;;;;3.75;0.70;;;23.20;89.50;;;;;;5050161;28;20021;-80
2022/07/26 07:50:47;;;;;;;2.47;0.60;;;23.10;90.20;;;;;;5049797;28;20025;-82
2022/07/26 07:53:13;;;;;;;1.30;0.65;;;23.10;90.00;;;;;;5050243;28;20052;-80
2022/07/26 07:55:38;;;;;;;2.47;0.70;;;23.10;90.20;;;;;;5051323;28;20032;-79
2022/07/26 07:58:04;;;;;;;3.67;0.63;;;23.10;88.50;;;;;;5052649;28;20105;-79
2022/07/26 08:00:30;;;;;;;4.63;0.73;;;23.20;89.00;;;;;;5049911;28;20086;-80
2022/07/26 08:02:55;;;;;;;5.25;0.82;;;23.20;90.10;;;;;;5048935;28;20116;-79
2022/07/26 08:05:21;;;;;;;2.00;0.60;;;23.40;88.20;;;;;;5051093;28;20033;-80
2022/07/26 08:07:46;;;;;;;1.40;0.47;;;23.50;87.00;;;;;;5048998;28;20091;-82
2022/07/26 08:10:12;;;;;;;5.50;0.70;;;23.60;86.90;;;;;;5051111;28;20017;-80
2022/07/26 08:12:38;;;;;;;1.77;0.52;;;23.80;87.20;;;;;;5049211;28;20025;-79
2022/07/26 08:15:04;;;;;;;2.22;0.70;;;23.80;85.80;;;;;;5049476;28;20025;-79
2022/07/26 08:17:30;;;;;;;3.45;1.15;;;23.90;85.00;;;;;;5041008;28;20465;-78
2022/07/26 08:19:55;;;;;;;2.28;0.40;;;23.90;85.30;;;;;;5048326;28;20028;-81
2022/07/26 08:22:21;;;;;;;3.13;0.80;;;23.90;85.50;;;;;;5048957;28;20085;-83
2022/07/26 08:24:46;;;;;;;2.33;0.60;;;24.00;86.60;;;;;;5048199;28;20477;-79
2022/07/26 08:27:13;;;;;;;5.55;1.00;;;24.00;85.20;;;;;;5048845;28;20563;-78
2022/07/26 08:29:39;;;;;;;1.63;0.63;;;24.00;86.00;;;;;;5050336;28;20025;-79
2022/07/26 08:32:05;;;;;;;4.75;0.60;;;24.10;85.40;;;;;;5049936;28;20497;-80
2022/07/26 08:34:30;;;;;;;3.72;0.57;;;24.20;86.00;;;;;;5048993;28;20166;-84
2022/07/26 08:36:56;;;;;;;2.17;0.60;;;24.40;84.00;;;;;;5048447;28;20029;-80
2022/07/26 08:39:21;;;;;;;4.78;0.70;;;24.40;84.60;;;;;;5050676;28;20029;-82
2022/07/26 08:41:47;;;;;;;4.30;0.50;;;24.40;84.90;;;;;;5050316;28;20115;-79
2022/07/26 08:44:12;;;;;;;3.50;0.60;;;24.40;85.40;;;;;;5049214;28;20029;-82
2022/07/26 08:46:41;;;;;;;3.53;0.70;;;24.50;84.20;;;;;;5049730;28;20040;-79
2022/07/26 08:49:09;;;;;;;2.28;0.60;;;24.40;83.60;;;;;;5049350;28;20021;-79
2022/07/26 08:51:41;;;;;;;3.78;0.68;;;24.40;84.30;;;;;;5048572;28;20057;-80
2022/07/26 08:54:07;;;;;;;;;;;24.50;83.40;;;;;;5049699;28;20025;-80
2022/07/26 08:56:35;;;;;;;1.33;0.50;;;24.50;83.10;;;;;;5048353;28;19905;-83
2022/07/26 08:59:10;;;;;;;1.30;0.43;;;24.50;83.70;;;;;;5050152;28;20021;-84
2022/07/26 09:01:53;;;;;;;1.92;0.60;;;24.70;84.60;;;;;;5048802;28;20029;-79
2022/07/26 09:04:21;;;;;;;1.80;0.65;;;25.00;82.90;;;;;;5050304;28;20041;-82
2022/07/26 09:06:58;;;;;;;3.25;0.55;;;25.10;81.70;;;;;;5047977;28;20029;-80
2022/07/26 09:09:24;;;;;;;2.92;0.80;;;25.10;80.90;;;;;;5048764;28;20052;-84
2022/07/26 09:11:50;;;;;;;1.45;0.50;;;25.00;81.30;;;;;;5049926;28;20025;-83
2022/07/26 09:14:15;;;;;;;2.10;0.85;;;24.80;82.50;;;;;;5048985;28;20021;-81
2022/07/26 09:16:57;;;;;;;1.20;0.65;;;24.80;82.70;;;;;;5048186;28;20021;-86
2022/07/26 09:19:23;;;;;;;2.03;0.60;;;24.90;81.70;;;;;;5050298;28;20025;-85
2022/07/26 09:21:50;;;;;;;2.35;0.82;;;24.80;81.90;;;;;;5048450;28;20035;-81
2022/07/26 09:24:40;;;;;;;3.67;0.40;;;24.80;81.80;;;;;;5050007;28;20402;-79
2022/07/26 09:27:07;;;;;;;3.30;0.98;;;25.10;81.20;;;;;;5045290;28;20136;-80
2022/07/26 09:29:49;;;;;;;4.35;0.93;;;25.30;81.10;;;;;;5050160;28;20044;-81
2022/07/26 09:32:21;;;;;;;5.03;1.03;;;25.60;81.40;;;;;;5048208;28;20060;-80
2022/07/26 09:34:52;;;;;;;3.60;0.88;;;25.80;81.50;;;;;;5050086;28;20048;-80
2022/07/26 09:37:31;;;;;;;5.00;1.00;;;25.90;80.40;;;;;;5049255;28;20160;-81
2022/07/26 09:39:59;;;;;;;5.40;0.70;;;26.10;78.90;;;;;;5048501;28;20025;-80
2022/07/26 09:42:26;;;;;;;1.23;0.70;;;26.10;77.80;;;;;;5049458;28;20576;-79
2022/07/26 09:44:56;;;;;;;2.97;0.70;;;26.00;79.10;;;;;;5048611;28;20079;-80
2022/07/26 09:47:33;;;;;;;10.27;0.60;;;25.90;79.60;;;;;;5047745;28;20381;-80
2022/07/26 09:50:14;;;;;;;6.57;0.80;;;25.90;77.90;;;;;;5050927;28;20444;-81
2022/07/26 09:52:39;;;;;;;2.05;0.60;;;26.10;76.80;;;;;;5053075;28;20029;-80
2022/07/26 09:55:07;;;;;;;3.90;0.63;;;26.10;75.80;;;;;;5053058;28;20032;-81
2022/07/26 09:57:34;;;;;;;2.60;0.60;;;26.10;77.00;;;;;;5052793;28;20021;-83
2022/07/26 10:00:03;;;;;;;2.88;0.80;;;26.20;77.40;;;;;;5053184;28;20017;-81
2022/07/26 10:02:29;;;;;;;5.63;0.57;;;26.30;78.20;;;;;;5052792;28;20457;-79
2022/07/26 10:04:54;;;;;;;3.33;0.73;;;26.50;76.90;;;;;;5053147;28;20074;-82
2022/07/26 10:07:20;;;;;;;1.33;0.60;;;26.70;75.50;;;;;;5052699;28;20039;-85
2022/07/26 10:09:59;;;;;;;3.92;0.80;;;26.70;75.80;;;;;;5051451;28;20108;-80
2022/07/26 10:12:27;;;;;;;3.35;0.65;;;26.70;76.20;;;;;;5051802;28;20047;-81
2022/07/26 10:14:54;;;;;;;0.70;0.50;;;26.80;74.40;;;;;;5051674;28;20082;-79
2022/07/26 10:17:28;;;;;;;4.50;0.50;;;26.70;75.00;;;;;;5052462;28;20028;-79
2022/07/26 10:19:56;;;;;;;4.72;0.70;;;26.60;75.30;;;;;;5051873;28;20032;-81
2022/07/26 10:22:32;;;;;;;1.58;0.50;;;26.60;74.90;;;;;;5051255;28;20377;-81
2022/07/26 10:25:16;;;;;;;2.70;0.82;;;26.50;74.50;;;;;;5052640;28;20029;-83
2022/07/26 10:27:47;;;;;;;2.95;0.65;;;26.20;75.00;;;;;;5052838;28;20079;-81
2022/07/26 10:30:16;;;;;;;2.72;0.40;;;26.20;78.30;;;;;;5051653;28;20036;-83
2022/07/26 10:33:00;;;;;;;0.70;0.40;;;26.40;77.10;;;;;;5050849;28;20064;-82
2022/07/26 10:35:31;;;;;;;1.73;0.60;;;26.80;74.00;;;;;;5052183;28;20029;-82
2022/07/26 10:37:58;;;;;;;2.50;0.65;;;27.00;71.50;;;;;;5052426;28;20103;-83
2022/07/26 10:40:28;;;;;;;0.88;0.45;;;27.00;71.20;;;;;;5052619;28;20028;-84
2022/07/26 10:43:15;;;;;;;1.65;0.68;;;27.10;72.60;;;;;;5052152;28;20028;-82
2022/07/26 10:45:41;;;;;;;0.63;0.63;;;27.40;71.90;;;;;;5051746;28;20025;-82
2022/07/26 10:48:14;;;;;;;2.92;0.43;;;27.80;70.50;;;;;;5052451;28;20025;-81
2022/07/26 10:50:45;;;;;;;1.75;0.20;;;27.90;67.80;;;;;;5052610;28;20055;-81
2022/07/26 10:53:18;;;;;;;1.02;0.40;;;28.10;67.40;;;;;;5050723;28;20086;-82
2022/07/26 10:55:45;;;;;;;1.60;0.40;;;27.90;67.90;;;;;;5050232;28;20029;-81
2022/07/26 10:58:11;;;;;;;1.67;0.52;;;27.80;68.00;;;;;;5051338;28;20025;-79
2022/07/26 11:00:37;;;;;;;4.82;0.93;;;27.70;69.50;;;;;;5051297;28;20612;-82
2022/07/26 11:03:02;;;;;;;1.02;0.65;;;27.40;69.10;;;;;;5052491;28;20029;-80
2022/07/26 11:05:30;;;;;;;5.22;0.68;;;27.20;68.00;;;;;;5051378;28;20038;-83
2022/07/26 11:08:04;;;;;;;1.30;0.68;;;26.90;69.00;;;;;;5052018;28;20025;-84
2022/07/26 11:10:32;;;;;;;1.33;0.57;;;26.60;69.30;;;;;;5050540;28;20461;-81
2022/07/26 11:13:19;;;;;;;2.58;0.70;;;26.30;69.90;;;;;;5051636;28;20112;-79
2022/07/26 11:16:02;;;;;;;1.15;0.70;;;26.00;70.80;;;;;;5050665;28;20024;-78
2022/07/26 11:18:34;;;;;;;1.55;0.70;;;25.90;71.60;;;;;;5051494;28;20025;-77
2022/07/26 11:21:13;;;;;;;1.20;0.60;;;25.80;72.00;;;;;;5052779;28;20040;-81
2022/07/26 11:23:43;;;;;;;2.05;0.60;;;25.60;72.40;;;;;;5052387;28;20040;-79
2022/07/26 11:26:19;;;;;;;1.30;0.73;;;25.60;72.70;;;;;;5052014;28;20037;-82
2022/07/26 11:29:01;;;;;;;1.05;0.60;;;25.60;73.90;;;;;;5051455;28;20021;-83
2022/07/26 11:31:37;;;;;;;2.17;0.98;;;25.60;73.50;;;;;;5051236;28;20021;-81
2022/07/26 11:34:04;;;;;;;1.63;0.60;;;25.70;74.20;;;;;;5049740;28;20303;-83
2022/07/26 11:36:41;;;;;;;2.10;0.70;;;25.90;73.70;;;;;;5049720;28;20029;-83
2022/07/26 11:39:19;;;;;;;3.42;0.93;;;26.20;72.00;;;;;;5050264;28;20121;-84
2022/07/26 11:41:44;;;;;;;1.92;0.50;;;26.60;72.10;;;;;;5050232;28;20040;-86
2022/07/26 11:44:18;;;;;;;1.95;0.52;;;27.00;70.60;;;;;;5052066;28;20025;-82
2022/07/26 11:46:47;;;;;;;1.92;0.85;;;27.30;69.20;;;;;;5049585;28;20115;-82
2022/07/26 11:49:21;;;;;;;0.93;0.57;;;27.60;69.20;;;;;;5051239;28;20025;-79
2022/07/26 11:52:00;;;;;;;2.30;0.80;;;27.80;68.40;;;;;;5051090;28;20025;-80
2022/07/26 11:54:41;;;;;;;4.00;0.68;;;27.80;67.50;;;;;;5051821;28;20063;-79
2022/07/26 11:57:07;;;;;;;1.80;0.65;;;27.70;68.50;;;;;;5050570;28;20112;-80
2022/07/26 11:59:35;;;;;;;1.27;0.73;;;27.70;67.20;;;;;;5050985;28;20506;-80
2022/07/26 12:02:04;;;;;;;3.75;0.70;;;27.50;67.70;;;;;;5049095;28;20029;-81
2022/07/26 12:04:39;;;;;;;1.23;0.63;;;27.30;67.10;;;;;;5051021;28;20064;-79
2022/07/26 12:07:09;;;;;;;2.97;0.60;;;27.30;67.20;;;;;;5049015;28;20024;-78
2022/07/26 12:09:39;;;;;;;2.15;0.70;;;27.20;67.50;;;;;;5051053;28;20029;-83
2022/07/26 12:12:08;;;;;;;2.10;0.70;;;26.90;67.90;;;;;;5050264;28;20017;-82
2022/07/26 12:14:38;;;;;;;2.25;0.75;;;26.70;67.80;;;;;;5050727;28;20172;-80
2022/07/26 12:17:15;;;;;;;2.10;0.90;;;26.60;67.50;;;;;;5048436;28;20024;-79
2022/07/26 12:19:42;;;;;;;4.15;0.90;;;26.40;68.40;;;;;;5049419;28;20024;-81
2022/07/26 12:22:14;;;;;;;3.45;0.80;;;26.30;69.10;;;;;;5049050;28;20116;-79
2022/07/26 12:24:41;;;;;;;;;;;26.10;68.20;;;;;;5051321;28;20028;-81
2022/07/26 12:27:09;;;;;;;2.42;1.00;;;26.10;69.10;;;;;;5048407;28;19936;-84
2022/07/26 12:29:35;;;;;;;2.45;1.00;;;25.90;69.40;;;;;;5049211;28;20021;-81
2022/07/26 12:32:04;;;;;;;2.63;0.90;;;25.80;68.30;;;;;;5049702;28;20347;-82
2022/07/26 12:34:29;;;;;;;2.42;1.05;;;25.70;68.90;;;;;;5050551;28;20174;-82
2022/07/26 12:37:05;;;;;;;1.73;1.00;;;25.60;69.50;;;;;;5048214;28;20397;-78
2022/07/26 12:39:31;;;;;;;6.13;1.08;;;25.50;69.90;;;;;;5048503;28;20021;-82
2022/07/26 12:41:56;;;;;;;5.07;1.20;;;25.60;70.30;;;;;;5049764;28;20119;-79
2022/07/26 12:44:22;;;;;;;1.70;1.00;;;25.50;70.70;;;;;;5050587;28;20040;-81
2022/07/26 12:46:47;;;;;;;2.25;0.90;;;25.50;71.00;;;;;;5049552;28;20496;-80
2022/07/26 12:49:13;;;;;;;2.08;1.10;;;25.50;70.80;;;;;;5050452;28;20025;-79